Mount Rainier National Park, WA

9:19 AM PDT on October 01, 2014 (GMT -0700)
RAWS OHANAPECOSH WA US | Change Station
CLOSE
Current Station
Personal Weather Station
Location: Packwood, WA
Elevation: 1950 ft
Nearby Weather Stations

Elev 1950 ft 46.73 °N, 121.57 °W | Updated 38 minutes ago

Light Rain
Light Rain Fog
46 °F
Feels Like 46 °F
N
0
Wind Variable Wind from North
Gusts 0.0 mph

Today
High -- | Low -- °F
--% Chance of Precip.
Yesterday
High -- | Low -- °F
Precip. -- in
7:06 AM 6:46 PM
Waxing Crescent, 49% visible
Pressure 29.99 in
Visibility 0.5 miles
Clouds
Windchill 46 °F
Dew Point 46 °F
Humidity 99%
Rainfall -999.00 in
Snow Depth 0 in , 0 in , 0 in
UV Not available.
Pollen 1.10 out of 12
Air Quality Not available.
Flu Activity Not available.
METAR KSMP 301338Z AUTO 27009G21KT 220V300 1/2SM -RA FG VV002 05/04 A2999 RMK AO2 RAE01B15 P0002 T00500039 $

More Conditions Fewer Conditions

Pressure 29.99 in
Visibility 0.5 miles
Clouds
Windchill 46 °F
Dew Point 46 °F
Humidity 99%
Rainfall -999.00 in
Snow Depth 0 in , 0 in , 0 in
UV Not available.
Pollen 1.10 out of 12
Air Quality Not available.
Flu Activity Not available.
METAR KSMP 301338Z AUTO 27009G21KT 220V300 1/2SM -RA FG VV002 05/04 A2999 RMK AO2 RAE01B15 P0002 T00500039 $

More Conditions Fewer Conditions

10-Day Weather Forecast

Almanac

Astronomy

Oct. 01, 2014 Rise Set
Actual Time 7:06 AM PDT 6:46 PM PDT
Civil Twilight 6:35 AM PDT 7:16 PM PDT
Nautical Twilight 6:00 AM PDT 7:52 PM PDT
Astronomical Twilight 5:24 AM PDT 8:27 PM PDT
Moon 2:27 PM PDT No Moon Set
Length of Visible Light 12h 41m
Length of Day
11h 40m
Tomorrow will be 3m 18s shorter.
Waxing Crescent, 49% of the Moon is Illuminated
Today
Waxing Crescent
Oct 1
First Quarter
Oct 8
Full
Oct 15
Last Quarter
Oct 23
New

Today's Extremes

State Highs State Lows

Community

WunderPhotos

Upload Photos

1,757,976 photos uploaded!

WunderBlogs® & News

Nearby

Snow Depth

Station Depth Elevation
Dungeness 0 in 4100 ft
Lyman Lake 0 in 5900 ft
Bumping Ridge 0 in 4600 ft
Olallie Meadows 1 in 3700 ft
Wells Creek 0 in 4200 ft

Earthquake Activity

City Distance Mag. Time & Date
No recent earthquake activity has been reported nearby.
Minimum magnitude displayed is 2.5.

Coastal Water Temperatures

Place Temperature
No Stations Reporting

Nearby Weather Stations